| time (UTC) | temp F | wind direction | speed knots | gust knots | rain 1hr in | rain 24hr in | rain mn in | humidity % | barometer mb |
| 20260503194549 | 79 | 292 | 0.9 | 3.5 | 0.00 | 0.00 | 0.00 | 52 | 1008.2 |
| 20260503193040 | 78 | 282 | 1.7 | 3.5 | 0.00 | 0.00 | 0.00 | 51 | 1008.4 |
| 20260503191514 | 77 | 293 | 0.9 | 4.3 | 0.00 | 0.00 | 0.00 | 53 | 1008.6 |
| 20260503190106 | 76 | 302 | 0.9 | 4.3 | 0.00 | 0.00 | 0.00 | 56 | 1008.8 |
| 20260503184539 | 75 | 280 | 0.0 | 2.6 | 0.00 | 0.00 | 0.00 | 57 | 1009.0 |
| 20260503183020 | 74 | 286 | 0.9 | 3.5 | 0.00 | 0.00 | 0.00 | 58 | 1009.1 |
| 20260503181633 | 73 | 288 | 0.0 | 4.3 | 0.00 | 0.00 | 0.00 | 61 | 1009.3 |
| 20260503180041 | 71 | 278 | 0.0 | 4.3 | 0.00 | 0.00 | 0.00 | 64 | 1009.4 |
| 20260503174557 | 71 | 273 | 0.9 | 4.3 | 0.00 | 0.00 | 0.00 | 64 | 1009.6 |
| 20260503173031 | 70 | 271 | 0.0 | 3.5 | 0.00 | 0.00 | 0.00 | 66 | 1009.7 |
| 20260503171520 | 69 | 280 | 0.9 | 3.5 | 0.00 | 0.00 | 0.00 | 67 | 1009.8 |
| 20260503100112 | 54 | 131 | 0.0 | 0.0 | 0.00 | 0.00 | 0.00 | 91 | 1010.3 |
| 20260503081528 | 56 | 131 | 0.0 | 0.0 | 0.00 | 0.00 | 0.00 | 88 | 1010.6 |
| 20260503071532 | 58 | 131 | 0.0 | 0.0 | 0.00 | 0.00 | 0.00 | 86 | 1010.7 |
| 20260503054510 | 62 | 240 | 0.0 | 0.9 | 0.00 | 0.00 | 0.00 | 80 | 1010.7 |
| 20260503053100 | 63 | 288 | 0.0 | 0.9 | 0.00 | 0.00 | 0.00 | 78 | 1010.4 |
| 20260503051548 | 62 | 269 | 0.0 | 0.0 | 0.00 | 0.00 | 0.00 | 79 | 1010.4 |
| 20260503050030 | 62 | 274 | 0.0 | 0.9 | 0.00 | 0.00 | 0.00 | 79 | 1010.5 |
| 20260503044512 | 63 | 66 | 0.0 | 0.0 | 0.00 | 0.00 | 0.00 | 79 | 1010.9 |
| 20260503043102 | 63 | 66 | 0.0 | 0.0 | 0.00 | 0.00 | 0.00 | 78 | 1010.7 |
| 20260503041544 | 64 | 66 | 0.0 | 0.0 | 0.00 | 0.00 | 0.00 | 77 | 1010.9 |
| 20260503040031 | 64 | 66 | 0.0 | 0.0 | 0.00 | 0.00 | 0.00 | 76 | 1010.6 |
| 20260503034516 | 64 | 132 | 0.0 | 1.7 | 0.00 | 0.00 | 0.00 | 75 | 1010.6 |
| 20260503033001 | 65 | 139 | 0.0 | 0.9 | 0.00 | 0.00 | 0.00 | 74 | 1010.5 |
| 20260503031557 | 65 | 219 | 0.0 | 0.0 | 0.00 | 0.00 | 0.00 | 74 | 1010.5 |
| 20260503030038 | 65 | 110 | 0.0 | 0.9 | 0.00 | 0.00 | 0.00 | 73 | 1010.3 |
| 20260503024524 | 66 | 212 | 0.9 | 2.6 | 0.00 | 0.00 | 0.00 | 72 | 1010.3 |
| 20260503023010 | 67 | 226 | 1.7 | 7.8 | 0.00 | 0.00 | 0.00 | 71 | 1010.1 |
| 20260503021602 | 70 | 205 | 0.9 | 4.3 | 0.00 | 0.00 | 0.00 | 65 | 1010.0 |
| 20260503020051 | 71 | 224 | 0.0 | 1.7 | 0.00 | 0.00 | 0.00 | 64 | 1009.6 |
| 20260503014537 | 71 | 217 | 0.0 | 0.9 | 0.00 | 0.00 | 0.00 | 65 | 1009.3 |
| 20260503013104 | 71 | 209 | 0.0 | 1.7 | 0.00 | 0.00 | 0.00 | 64 | 1009.3 |
| 20260503011604 | 71 | 212 | 0.0 | 1.7 | 0.00 | 0.00 | 0.00 | 63 | 1009.3 |
| 20260503010047 | 71 | 214 | 0.0 | 0.9 | 0.00 | 0.00 | 0.00 | 64 | 1009.2 |
| 20260503004519 | 71 | 125 | 0.0 | 0.9 | 0.00 | 0.00 | 0.00 | 64 | 1009.3 |
| 20260503003007 | 71 | 136 | 0.0 | 1.7 | 0.00 | 0.00 | 0.00 | 63 | 1009.3 |
| 20260503001601 | 71 | 266 | 0.0 | 1.7 | 0.00 | 0.00 | 0.00 | 63 | 1009.2 |
| 20260503000038 | 70 | 276 | 0.0 | 1.7 | 0.00 | 0.00 | 0.00 | 64 | 1009.4 |
| 20260502234523 | 70 | 271 | 0.0 | 3.5 | 0.00 | 0.00 | 0.00 | 65 | 1009.6 |
| 20260502233015 | 69 | 153 | 0.0 | 3.5 | 0.00 | 0.00 | 0.00 | 66 | 1009.6 |
| 20260502231555 | 68 | 334 | 0.0 | 5.2 | 0.00 | 0.00 | 0.00 | 66 | 1009.9 |
| 20260502230038 | 67 | 356 | 1.7 | 5.2 | 0.00 | 0.00 | 0.00 | 67 | 1010.0 |
| 20260502224516 | 66 | 272 | 1.7 | 4.3 | 0.00 | 0.00 | 0.00 | 68 | 1010.2 |
| 20260502223002 | 66 | 269 | 0.0 | 3.5 | 0.00 | 0.00 | 0.00 | 68 | 1010.6 |
| 20260502221550 | 66 | 276 | 0.9 | 5.2 | 0.00 | 0.00 | 0.00 | 68 | 1010.7 |
| 20260502220029 | 65 | 307 | 0.9 | 2.6 | 0.00 | 0.00 | 0.00 | 68 | 1011.0 |
| 20260502214515 | 65 | 134 | 0.0 | 3.5 | 0.00 | 0.00 | 0.00 | 69 | 1011.2 |
| 20260502213002 | 64 | 275 | 2.6 | 5.2 | 0.00 | 0.00 | 0.00 | 70 | 1011.5 |
| 20260502211603 | 64 | 312 | 1.7 | 5.2 | 0.00 | 0.00 | 0.00 | 70 | 1011.6 |
| 20260502210046 | 64 | 322 | 0.9 | 5.2 | 0.00 | 0.00 | 0.00 | 70 | 1011.8 |
| 20260502204517 | 62 | 283 | 0.9 | 3.5 | 0.00 | 0.00 | 0.00 | 72 | 1012.2 |
| 20260502203109 | 62 | 259 | 0.0 | 3.5 | 0.00 | 0.00 | 0.00 | 73 | 1012.4 |
| 20260502201557 | 61 | 61 | 0.0 | 2.6 | 0.00 | 0.00 | 0.00 | 74 | 1012.6 |
| 20260502200033 | 61 | 323 | 1.7 | 5.2 | 0.00 | 0.00 | 0.00 | 74 | 1012.7 |